Kinston Regional Jetport At Stallings Field
KISO : now visible

Airfield :











YOU CAN JOIN US ON...

 
LOGIN :

Register | Disclaimer

   EN    FR    IT 

 









Legend :    VFR   Marginal VFR   IFR   Intensive IFR   Very Intensive IFR
Visi :
Ceiling :
>= 8 km
>= 3000ft
5 to 8 km
1000 to 3000 ft
1500m to 5 km
500 to 1000 ft
800 to 1500m
200 to 500 ft
< 800m
< 200 ft
Symbols :   Thunderstorms  Fog  Heavy snow  Heavy precipitations  Wind > 20 kt







- Airport Elevation : 93 ft


KISO - Kinston Regional Jetport At Stallings Field

CURRENT METAR :
  • 171156Z 22006KT 10SM CLR 27/25 A3009

EXPIRED METARs :
  • 171056Z 22005KT 10SM CLR 26/25 A3009
  • 171025Z 21004KT 7SM CLR 26/25 A3009
  • 171000Z AUTO 19003KT 10SM CLR 26/25 A3009 RMK AO2 T02550247
  • 170940Z AUTO 20003KT 10SM CLR 26/25 A3008 RMK AO2 T02560248

TAF KISO
Valid from the 17 at 12:00 until the 18 at 12:00 UTC


171134Z 1712/1812 19004KT P6SM FEW200
FM171500 22008G13KT P6SM SCT050
FM172000 19010G17KT P6SM BKN050
FM180100 19007KT P6SM SCT250 AMD LTD TO CLD VIS AND WIND
KZDC FIR / North America



MET'MAP, your aeronautical weather chart ! - Copyright ORBIFLY December 2007 - Disclaimer

ORBIFLY MET'MAP TEAM :

Programming & Development : Alexandra Zaïnal
Concept & Development : Baudouin d'Aumeries
Co-Development & Prog : Marc-Olivier Méhu
Technical & hardware support : Manuel Goepfert

Contact : metmap@orbifly.com




SOURCES & CREDITS :

   NOAA       Earth
Advisory